sensor_id;sensor_type;location;lat;lon;timestamp;temperature;humidity
65369;HTU21D;51970;53.484;49.488;2022-08-20T00:01:45;13.26;55.75
65369;HTU21D;51970;53.484;49.488;2022-08-20T00:04:12;13.25;55.89
65369;HTU21D;51970;53.484;49.488;2022-08-20T00:06:39;13.19;55.78
65369;HTU21D;51970;53.484;49.488;2022-08-20T00:09:05;13.11;56.06
65369;HTU21D;51970;53.484;49.488;2022-08-20T00:11:32;13.09;56.32
65369;HTU21D;51970;53.484;49.488;2022-08-20T00:14:00;13.15;56.40
65369;HTU21D;51970;53.484;49.488;2022-08-20T00:16:32;13.10;56.10
65369;HTU21D;51970;53.484;49.488;2022-08-20T00:19:03;13.07;56.52
65369;HTU21D;51970;53.484;49.488;2022-08-20T00:21:29;13.04;57.00
65369;HTU21D;51970;53.484;49.488;2022-08-20T00:23:56;12.94;57.38
65369;HTU21D;51970;53.484;49.488;2022-08-20T00:26:23;12.94;57.26
65369;HTU21D;51970;53.484;49.488;2022-08-20T00:28:51;12.82;57.61
65369;HTU21D;51970;53.484;49.488;2022-08-20T00:31:19;12.85;57.86
65369;HTU21D;51970;53.484;49.488;2022-08-20T00:33:46;12.80;57.83
65369;HTU21D;51970;53.484;49.488;2022-08-20T00:36:12;12.78;57.90
65369;HTU21D;51970;53.484;49.488;2022-08-20T00:38:42;12.80;57.51
65369;HTU21D;51970;53.484;49.488;2022-08-20T00:41:12;12.77;57.44
65369;HTU21D;51970;53.484;49.488;2022-08-20T00:43:42;12.75;57.76
65369;HTU21D;51970;53.484;49.488;2022-08-20T00:46:20;12.74;57.77
65369;HTU21D;51970;53.484;49.488;2022-08-20T00:48:49;12.67;58.40
65369;HTU21D;51970;53.484;49.488;2022-08-20T00:51:29;12.71;58.21
65369;HTU21D;51970;53.484;49.488;2022-08-20T00:54:27;12.64;58.41
65369;HTU21D;51970;53.484;49.488;2022-08-20T00:56:58;12.65;59.06
65369;HTU21D;51970;53.484;49.488;2022-08-20T00:59:29;12.67;58.64
65369;HTU21D;51970;53.484;49.488;2022-08-20T01:01:56;12.67;58.99
65369;HTU21D;51970;53.484;49.488;2022-08-20T01:04:28;12.71;59.05
65369;HTU21D;51970;53.484;49.488;2022-08-20T01:06:55;12.71;59.35
65369;HTU21D;51970;53.484;49.488;2022-08-20T01:09:22;12.72;59.25
65369;HTU21D;51970;53.484;49.488;2022-08-20T01:11:48;12.63;59.24
65369;HTU21D;51970;53.484;49.488;2022-08-20T01:14:14;12.59;59.61
65369;HTU21D;51970;53.484;49.488;2022-08-20T01:16:49;12.49;59.55
65369;HTU21D;51970;53.484;49.488;2022-08-20T01:19:20;12.52;60.11
65369;HTU21D;51970;53.484;49.488;2022-08-20T01:21:48;12.48;59.67
65369;HTU21D;51970;53.484;49.488;2022-08-20T01:24:34;12.48;59.53
65369;HTU21D;51970;53.484;49.488;2022-08-20T01:27:03;12.58;59.33
65369;HTU21D;51970;53.484;49.488;2022-08-20T01:29:35;12.59;59.86
65369;HTU21D;51970;53.484;49.488;2022-08-20T01:32:03;12.56;59.90
65369;HTU21D;51970;53.484;49.488;2022-08-20T01:34:29;12.58;59.51
65369;HTU21D;51970;53.484;49.488;2022-08-20T01:36:57;12.57;59.06
65369;HTU21D;51970;53.484;49.488;2022-08-20T01:39:30;12.49;59.18
65369;HTU21D;51970;53.484;49.488;2022-08-20T01:44:39;12.43;59.74
65369;HTU21D;51970;53.484;49.488;2022-08-20T01:49:41;12.59;59.22
65369;HTU21D;51970;53.484;49.488;2022-08-20T01:52:10;12.69;58.75
65369;HTU21D;51970;53.484;49.488;2022-08-20T01:54:37;12.70;58.77
65369;HTU21D;51970;53.484;49.488;2022-08-20T01:57:10;12.66;58.78
65369;HTU21D;51970;53.484;49.488;2022-08-20T01:59:37;12.88;58.41
65369;HTU21D;51970;53.484;49.488;2022-08-20T02:02:04;13.12;57.94
65369;HTU21D;51970;53.484;49.488;2022-08-20T02:04:32;13.22;57.13
65369;HTU21D;51970;53.484;49.488;2022-08-20T02:07:01;13.52;56.36
65369;HTU21D;51970;53.484;49.488;2022-08-20T02:09:31;13.82;55.66
65369;HTU21D;51970;53.484;49.488;2022-08-20T02:11:58;14.66;53.37
65369;HTU21D;51970;53.484;49.488;2022-08-20T02:14:26;15.84;49.89
65369;HTU21D;51970;53.484;49.488;2022-08-20T02:16:52;16.84;47.17
65369;HTU21D;51970;53.484;49.488;2022-08-20T02:19:22;17.33;45.25
65369;HTU21D;51970;53.484;49.488;2022-08-20T02:21:54;17.64;44.32
65369;HTU21D;51970;53.484;49.488;2022-08-20T02:24:21;17.79;43.69
65369;HTU21D;51970;53.484;49.488;2022-08-20T02:26:47;18.38;42.47
65369;HTU21D;51970;53.484;49.488;2022-08-20T02:29:14;18.88;40.76
65369;HTU21D;51970;53.484;49.488;2022-08-20T02:31:42;19.24;39.88
65369;HTU21D;51970;53.484;49.488;2022-08-20T02:34:10;19.14;39.65
65369;HTU21D;51970;53.484;49.488;2022-08-20T02:36:36;19.48;39.64
65369;HTU21D;51970;53.484;49.488;2022-08-20T02:39:08;19.90;38.53
65369;HTU21D;51970;53.484;49.488;2022-08-20T02:41:35;20.35;37.61
65369;HTU21D;51970;53.484;49.488;2022-08-20T02:44:02;20.63;36.87
65369;HTU21D;51970;53.484;49.488;2022-08-20T02:46:30;20.84;36.22
65369;HTU21D;51970;53.484;49.488;2022-08-20T02:48:57;20.83;36.98
65369;HTU21D;51970;53.484;49.488;2022-08-20T02:51:23;20.96;36.43
65369;HTU21D;51970;53.484;49.488;2022-08-20T02:53:50;21.32;35.51
65369;HTU21D;51970;53.484;49.488;2022-08-20T02:56:16;21.46;35.63
65369;HTU21D;51970;53.484;49.488;2022-08-20T02:58:43;22.17;33.92
65369;HTU21D;51970;53.484;49.488;2022-08-20T03:01:11;22.35;34.14
65369;HTU21D;51970;53.484;49.488;2022-08-20T03:03:39;21.59;35.29
65369;HTU21D;51970;53.484;49.488;2022-08-20T03:06:06;21.62;35.77
65369;HTU21D;51970;53.484;49.488;2022-08-20T03:08:33;21.95;34.88
65369;HTU21D;51970;53.484;49.488;2022-08-20T03:11:00;22.19;34.65
65369;HTU21D;51970;53.484;49.488;2022-08-20T03:13:26;20.44;38.13
65369;HTU21D;51970;53.484;49.488;2022-08-20T03:15:57;19.98;39.96
65369;HTU21D;51970;53.484;49.488;2022-08-20T03:18:26;20.21;39.03
65369;HTU21D;51970;53.484;49.488;2022-08-20T03:20:52;18.98;41.50
65369;HTU21D;51970;53.484;49.488;2022-08-20T03:23:19;17.39;45.77
65369;HTU21D;51970;53.484;49.488;2022-08-20T03:25:46;16.73;48.76
65369;HTU21D;51970;53.484;49.488;2022-08-20T03:28:13;16.46;49.74
65369;HTU21D;51970;53.484;49.488;2022-08-20T03:30:40;16.22;50.37
65369;HTU21D;51970;53.484;49.488;2022-08-20T03:33:07;16.11;50.53
65369;HTU21D;51970;53.484;49.488;2022-08-20T03:35:36;16.14;49.96
65369;HTU21D;51970;53.484;49.488;2022-08-20T03:38:08;16.20;49.39
65369;HTU21D;51970;53.484;49.488;2022-08-20T03:40:35;16.31;49.44
65369;HTU21D;51970;53.484;49.488;2022-08-20T03:43:04;16.35;49.91
65369;HTU21D;51970;53.484;49.488;2022-08-20T03:45:30;16.46;48.56
65369;HTU21D;51970;53.484;49.488;2022-08-20T03:47:57;16.60;49.02
65369;HTU21D;51970;53.484;49.488;2022-08-20T03:50:25;16.77;49.18
65369;HTU21D;51970;53.484;49.488;2022-08-20T03:52:53;16.94;48.27
65369;HTU21D;51970;53.484;49.488;2022-08-20T03:55:20;17.03;48.18
65369;HTU21D;51970;53.484;49.488;2022-08-20T03:57:50;17.11;47.96
65369;HTU21D;51970;53.484;49.488;2022-08-20T04:00:21;17.15;47.43
65369;HTU21D;51970;53.484;49.488;2022-08-20T04:02:47;17.16;46.82
65369;HTU21D;51970;53.484;49.488;2022-08-20T04:05:13;17.29;47.28
65369;HTU21D;51970;53.484;49.488;2022-08-20T04:07:40;17.35;46.53
65369;HTU21D;51970;53.484;49.488;2022-08-20T04:10:08;17.41;46.57
65369;HTU21D;51970;53.484;49.488;2022-08-20T04:12:35;17.59;46.11
65369;HTU21D;51970;53.484;49.488;2022-08-20T04:15:08;17.81;46.25
65369;HTU21D;51970;53.484;49.488;2022-08-20T04:17:36;17.87;45.51
65369;HTU21D;51970;53.484;49.488;2022-08-20T04:20:06;17.99;45.47
65369;HTU21D;51970;53.484;49.488;2022-08-20T04:22:33;18.09;44.87
65369;HTU21D;51970;53.484;49.488;2022-08-20T04:24:59;18.20;45.26
65369;HTU21D;51970;53.484;49.488;2022-08-20T04:27:25;18.44;44.98
65369;HTU21D;51970;53.484;49.488;2022-08-20T04:29:51;18.63;43.38
65369;HTU21D;51970;53.484;49.488;2022-08-20T04:32:17;18.73;43.10
65369;HTU21D;51970;53.484;49.488;2022-08-20T04:34:43;18.83;43.02
65369;HTU21D;51970;53.484;49.488;2022-08-20T04:37:09;18.84;42.50
65369;HTU21D;51970;53.484;49.488;2022-08-20T04:39:36;18.94;42.57
65369;HTU21D;51970;53.484;49.488;2022-08-20T04:42:02;18.97;42.49
65369;HTU21D;51970;53.484;49.488;2022-08-20T04:44:28;19.17;42.79
65369;HTU21D;51970;53.484;49.488;2022-08-20T04:46:54;19.35;42.03
65369;HTU21D;51970;53.484;49.488;2022-08-20T04:49:20;19.56;41.87
65369;HTU21D;51970;53.484;49.488;2022-08-20T04:51:49;19.63;42.03
65369;HTU21D;51970;53.484;49.488;2022-08-20T04:54:15;19.83;41.77
65369;HTU21D;51970;53.484;49.488;2022-08-20T04:56:41;19.83;41.22
65369;HTU21D;51970;53.484;49.488;2022-08-20T04:59:07;19.92;41.29
65369;HTU21D;51970;53.484;49.488;2022-08-20T05:01:34;20.12;40.77
65369;HTU21D;51970;53.484;49.488;2022-08-20T05:04:00;20.24;40.69
65369;HTU21D;51970;53.484;49.488;2022-08-20T05:06:30;20.16;40.52
65369;HTU21D;51970;53.484;49.488;2022-08-20T05:08:58;20.04;41.39
65369;HTU21D;51970;53.484;49.488;2022-08-20T05:11:26;20.33;41.49
65369;HTU21D;51970;53.484;49.488;2022-08-20T05:13:52;20.53;40.80
65369;HTU21D;51970;53.484;49.488;2022-08-20T05:16:19;20.74;40.39
65369;HTU21D;51970;53.484;49.488;2022-08-20T05:18:45;20.88;39.75
65369;HTU21D;51970;53.484;49.488;2022-08-20T05:21:12;20.77;39.52
65369;HTU21D;51970;53.484;49.488;2022-08-20T05:23:38;20.60;40.02
65369;HTU21D;51970;53.484;49.488;2022-08-20T05:26:09;20.44;40.26
65369;HTU21D;51970;53.484;49.488;2022-08-20T05:28:37;20.55;41.00
65369;HTU21D;51970;53.484;49.488;2022-08-20T05:31:05;20.76;40.22
65369;HTU21D;51970;53.484;49.488;2022-08-20T05:33:36;21.07;39.97
65369;HTU21D;51970;53.484;49.488;2022-08-20T05:36:03;21.34;39.78
65369;HTU21D;51970;53.484;49.488;2022-08-20T05:38:32;21.57;39.62
65369;HTU21D;51970;53.484;49.488;2022-08-20T05:40:59;21.76;39.25
65369;HTU21D;51970;53.484;49.488;2022-08-20T05:43:26;21.84;38.69
65369;HTU21D;51970;53.484;49.488;2022-08-20T05:45:52;21.88;38.97
65369;HTU21D;51970;53.484;49.488;2022-08-20T05:48:22;22.06;38.59
65369;HTU21D;51970;53.484;49.488;2022-08-20T05:50:51;22.05;37.89
65369;HTU21D;51970;53.484;49.488;2022-08-20T05:53:20;21.92;37.56
65369;HTU21D;51970;53.484;49.488;2022-08-20T05:55:47;22.04;37.43
65369;HTU21D;51970;53.484;49.488;2022-08-20T05:58:23;22.37;36.44
65369;HTU21D;51970;53.484;49.488;2022-08-20T06:00:51;22.73;36.14
65369;HTU21D;51970;53.484;49.488;2022-08-20T06:03:17;22.90;35.14
65369;HTU21D;51970;53.484;49.488;2022-08-20T06:06:01;23.00;33.72
65369;HTU21D;51970;53.484;49.488;2022-08-20T06:08:29;22.88;33.73
65369;HTU21D;51970;53.484;49.488;2022-08-20T06:10:56;22.67;33.08
65369;HTU21D;51970;53.484;49.488;2022-08-20T06:13:22;22.80;34.57
65369;HTU21D;51970;53.484;49.488;2022-08-20T06:15:48;22.85;32.54
65369;HTU21D;51970;53.484;49.488;2022-08-20T06:18:15;22.77;33.14
65369;HTU21D;51970;53.484;49.488;2022-08-20T06:20:41;22.90;32.76
65369;HTU21D;51970;53.484;49.488;2022-08-20T06:23:08;23.01;33.13
65369;HTU21D;51970;53.484;49.488;2022-08-20T06:25:34;23.11;32.11
65369;HTU21D;51970;53.484;49.488;2022-08-20T06:28:01;23.21;31.46
65369;HTU21D;51970;53.484;49.488;2022-08-20T06:30:28;23.20;32.40
65369;HTU21D;51970;53.484;49.488;2022-08-20T06:32:54;23.34;31.16
65369;HTU21D;51970;53.484;49.488;2022-08-20T06:35:20;23.39;31.29
65369;HTU21D;51970;53.484;49.488;2022-08-20T06:37:46;23.41;32.48
65369;HTU21D;51970;53.484;49.488;2022-08-20T06:40:16;23.44;32.87
65369;HTU21D;51970;53.484;49.488;2022-08-20T06:42:42;23.46;32.32
65369;HTU21D;51970;53.484;49.488;2022-08-20T06:45:15;23.30;32.96
65369;HTU21D;51970;53.484;49.488;2022-08-20T06:47:45;23.41;32.83
65369;HTU21D;51970;53.484;49.488;2022-08-20T06:50:22;23.58;32.99
65369;HTU21D;51970;53.484;49.488;2022-08-20T06:52:48;23.55;32.72
65369;HTU21D;51970;53.484;49.488;2022-08-20T06:55:15;23.45;32.81
65369;HTU21D;51970;53.484;49.488;2022-08-20T06:57:42;23.25;32.10
65369;HTU21D;51970;53.484;49.488;2022-08-20T07:00:17;23.28;32.60
65369;HTU21D;51970;53.484;49.488;2022-08-20T07:02:44;23.49;32.13
65369;HTU21D;51970;53.484;49.488;2022-08-20T07:05:13;23.62;32.77
65369;HTU21D;51970;53.484;49.488;2022-08-20T07:07:44;23.54;32.76
65369;HTU21D;51970;53.484;49.488;2022-08-20T07:10:15;23.70;32.26
65369;HTU21D;51970;53.484;49.488;2022-08-20T07:12:41;23.84;31.61
65369;HTU21D;51970;53.484;49.488;2022-08-20T07:15:09;23.72;31.12
65369;HTU21D;51970;53.484;49.488;2022-08-20T07:17:37;23.57;31.73
65369;HTU21D;51970;53.484;49.488;2022-08-20T07:20:11;23.56;32.72
65369;HTU21D;51970;53.484;49.488;2022-08-20T07:22:37;23.81;31.95
65369;HTU21D;51970;53.484;49.488;2022-08-20T07:25:04;23.98;31.86
65369;HTU21D;51970;53.484;49.488;2022-08-20T07:27:31;23.92;32.61
65369;HTU21D;51970;53.484;49.488;2022-08-20T07:29:57;23.96;31.09
65369;HTU21D;51970;53.484;49.488;2022-08-20T07:32:56;23.41;32.53
65369;HTU21D;51970;53.484;49.488;2022-08-20T07:35:22;23.40;32.73
65369;HTU21D;51970;53.484;49.488;2022-08-20T07:37:50;23.72;33.13
65369;HTU21D;51970;53.484;49.488;2022-08-20T07:40:23;24.00;32.06
65369;HTU21D;51970;53.484;49.488;2022-08-20T07:42:49;24.18;31.48
65369;HTU21D;51970;53.484;49.488;2022-08-20T07:45:16;24.11;31.86
65369;HTU21D;51970;53.484;49.488;2022-08-20T07:47:44;24.16;31.86
65369;HTU21D;51970;53.484;49.488;2022-08-20T07:50:13;24.33;31.96
65369;HTU21D;51970;53.484;49.488;2022-08-20T07:52:39;24.36;30.90
65369;HTU21D;51970;53.484;49.488;2022-08-20T07:55:08;24.20;31.12
65369;HTU21D;51970;53.484;49.488;2022-08-20T07:57:35;24.08;31.73
65369;HTU21D;51970;53.484;49.488;2022-08-20T08:00:04;23.71;32.45
65369;HTU21D;51970;53.484;49.488;2022-08-20T08:02:31;24.01;32.83
65369;HTU21D;51970;53.484;49.488;2022-08-20T08:04:58;24.16;32.04
65369;HTU21D;51970;53.484;49.488;2022-08-20T08:07:24;24.19;31.82
65369;HTU21D;51970;53.484;49.488;2022-08-20T08:09:51;24.00;32.10
65369;HTU21D;51970;53.484;49.488;2022-08-20T08:12:17;24.28;32.69
65369;HTU21D;51970;53.484;49.488;2022-08-20T08:14:45;24.42;31.32
65369;HTU21D;51970;53.484;49.488;2022-08-20T08:17:13;24.55;32.02
65369;HTU21D;51970;53.484;49.488;2022-08-20T08:19:47;24.71;31.99
65369;HTU21D;51970;53.484;49.488;2022-08-20T08:22:15;24.76;31.82
65369;HTU21D;51970;53.484;49.488;2022-08-20T08:24:43;24.83;32.15
65369;HTU21D;51970;53.484;49.488;2022-08-20T08:27:15;24.82;32.63
65369;HTU21D;51970;53.484;49.488;2022-08-20T08:29:44;24.49;31.37
65369;HTU21D;51970;53.484;49.488;2022-08-20T08:32:11;24.31;31.55
65369;HTU21D;51970;53.484;49.488;2022-08-20T08:34:37;24.38;31.41
65369;HTU21D;51970;53.484;49.488;2022-08-20T08:37:04;24.61;32.60
65369;HTU21D;51970;53.484;49.488;2022-08-20T08:39:32;24.62;32.87
65369;HTU21D;51970;53.484;49.488;2022-08-20T08:41:59;24.74;33.12
65369;HTU21D;51970;53.484;49.488;2022-08-20T08:44:35;24.87;32.87
65369;HTU21D;51970;53.484;49.488;2022-08-20T08:47:22;24.98;32.63
65369;HTU21D;51970;53.484;49.488;2022-08-20T08:49:50;24.99;32.21
65369;HTU21D;51970;53.484;49.488;2022-08-20T08:52:31;24.91;32.55
65369;HTU21D;51970;53.484;49.488;2022-08-20T08:55:01;24.70;32.50
65369;HTU21D;51970;53.484;49.488;2022-08-20T08:57:28;24.49;32.99
65369;HTU21D;51970;53.484;49.488;2022-08-20T08:59:58;24.63;33.02
65369;HTU21D;51970;53.484;49.488;2022-08-20T09:02:25;24.95;32.60
65369;HTU21D;51970;53.484;49.488;2022-08-20T09:04:54;25.06;32.44
65369;HTU21D;51970;53.484;49.488;2022-08-20T09:07:23;25.34;31.55
65369;HTU21D;51970;53.484;49.488;2022-08-20T09:09:49;25.14;31.84
65369;HTU21D;51970;53.484;49.488;2022-08-20T09:12:19;25.16;31.39
65369;HTU21D;51970;53.484;49.488;2022-08-20T09:14:49;25.10;27.88
65369;HTU21D;51970;53.484;49.488;2022-08-20T09:17:18;24.95;28.32
65369;HTU21D;51970;53.484;49.488;2022-08-20T09:19:44;25.07;30.03
65369;HTU21D;51970;53.484;49.488;2022-08-20T09:22:17;24.72;27.79
65369;HTU21D;51970;53.484;49.488;2022-08-20T09:24:44;24.59;29.44
65369;HTU21D;51970;53.484;49.488;2022-08-20T09:27:10;25.01;30.38
65369;HTU21D;51970;53.484;49.488;2022-08-20T09:29:37;25.32;30.33
65369;HTU21D;51970;53.484;49.488;2022-08-20T09:32:16;25.27;29.29
65369;HTU21D;51970;53.484;49.488;2022-08-20T09:34:46;25.01;30.43
65369;HTU21D;51970;53.484;49.488;2022-08-20T09:37:14;24.99;30.41
65369;HTU21D;51970;53.484;49.488;2022-08-20T09:39:40;25.08;29.53
65369;HTU21D;51970;53.484;49.488;2022-08-20T09:42:16;25.21;29.71
65369;HTU21D;51970;53.484;49.488;2022-08-20T09:44:42;25.10;29.36
65369;HTU21D;51970;53.484;49.488;2022-08-20T09:47:09;25.16;29.39
65369;HTU21D;51970;53.484;49.488;2022-08-20T09:49:35;25.05;29.19
65369;HTU21D;51970;53.484;49.488;2022-08-20T09:52:07;24.86;29.60
65369;HTU21D;51970;53.484;49.488;2022-08-20T09:54:33;25.32;29.36
65369;HTU21D;51970;53.484;49.488;2022-08-20T09:57:03;25.63;28.84
65369;HTU21D;51970;53.484;49.488;2022-08-20T09:59:30;25.79;27.91
65369;HTU21D;51970;53.484;49.488;2022-08-20T10:01:57;25.79;28.90
65369;HTU21D;51970;53.484;49.488;2022-08-20T10:04:23;25.99;28.02
65369;HTU21D;51970;53.484;49.488;2022-08-20T10:06:50;26.13;27.63
65369;HTU21D;51970;53.484;49.488;2022-08-20T10:09:16;26.35;27.78
65369;HTU21D;51970;53.484;49.488;2022-08-20T10:11:42;26.41;28.73
65369;HTU21D;51970;53.484;49.488;2022-08-20T10:14:08;26.25;27.62
65369;HTU21D;51970;53.484;49.488;2022-08-20T10:16:35;26.13;27.87
65369;HTU21D;51970;53.484;49.488;2022-08-20T10:19:03;26.25;28.33
65369;HTU21D;51970;53.484;49.488;2022-08-20T10:21:30;26.42;27.04
65369;HTU21D;51970;53.484;49.488;2022-08-20T10:23:57;26.54;28.17
65369;HTU21D;51970;53.484;49.488;2022-08-20T10:26:23;26.48;28.07
65369;HTU21D;51970;53.484;49.488;2022-08-20T10:28:49;26.50;26.96
65369;HTU21D;51970;53.484;49.488;2022-08-20T10:31:15;26.27;27.67
65369;HTU21D;51970;53.484;49.488;2022-08-20T10:33:41;26.37;27.68
65369;HTU21D;51970;53.484;49.488;2022-08-20T10:36:15;26.50;26.85
65369;HTU21D;51970;53.484;49.488;2022-08-20T10:38:42;26.58;26.91
65369;HTU21D;51970;53.484;49.488;2022-08-20T10:41:08;26.72;26.64
65369;HTU21D;51970;53.484;49.488;2022-08-20T10:43:35;26.83;26.02
65369;HTU21D;51970;53.484;49.488;2022-08-20T10:46:01;26.80;27.28
65369;HTU21D;51970;53.484;49.488;2022-08-20T10:48:27;26.69;26.81
65369;HTU21D;51970;53.484;49.488;2022-08-20T10:50:53;26.75;25.19
65369;HTU21D;51970;53.484;49.488;2022-08-20T10:53:19;26.65;24.60
65369;HTU21D;51970;53.484;49.488;2022-08-20T10:55:45;26.50;25.55
65369;HTU21D;51970;53.484;49.488;2022-08-20T10:58:11;26.58;24.79
65369;HTU21D;51970;53.484;49.488;2022-08-20T11:00:39;26.60;24.39
65369;HTU21D;51970;53.484;49.488;2022-08-20T11:03:05;26.30;24.89
65369;HTU21D;51970;53.484;49.488;2022-08-20T11:05:32;26.49;26.93
65369;HTU21D;51970;53.484;49.488;2022-08-20T11:08:01;26.55;25.07
65369;HTU21D;51970;53.484;49.488;2022-08-20T11:10:28;26.58;24.97
65369;HTU21D;51970;53.484;49.488;2022-08-20T11:12:55;26.57;24.68
65369;HTU21D;51970;53.484;49.488;2022-08-20T11:15:21;26.65;25.23
65369;HTU21D;51970;53.484;49.488;2022-08-20T11:17:47;26.63;25.43
65369;HTU21D;51970;53.484;49.488;2022-08-20T11:20:15;26.84;26.59
65369;HTU21D;51970;53.484;49.488;2022-08-20T11:22:41;26.87;26.02
65369;HTU21D;51970;53.484;49.488;2022-08-20T11:25:08;26.90;25.72
65369;HTU21D;51970;53.484;49.488;2022-08-20T11:27:37;26.97;26.50
65369;HTU21D;51970;53.484;49.488;2022-08-20T11:30:05;27.06;25.07
65369;HTU21D;51970;53.484;49.488;2022-08-20T11:32:32;27.22;24.95
65369;HTU21D;51970;53.484;49.488;2022-08-20T11:34:58;27.29;25.10
65369;HTU21D;51970;53.484;49.488;2022-08-20T11:37:24;27.25;24.99
65369;HTU21D;51970;53.484;49.488;2022-08-20T11:39:50;27.23;24.66
65369;HTU21D;51970;53.484;49.488;2022-08-20T11:42:17;27.15;24.01
65369;HTU21D;51970;53.484;49.488;2022-08-20T11:44:43;27.01;24.05
65369;HTU21D;51970;53.484;49.488;2022-08-20T11:47:45;26.89;23.54
65369;HTU21D;51970;53.484;49.488;2022-08-20T11:50:16;26.98;25.30
65369;HTU21D;51970;53.484;49.488;2022-08-20T11:52:43;26.97;23.59
65369;HTU21D;51970;53.484;49.488;2022-08-20T11:55:11;26.92;24.40
65369;HTU21D;51970;53.484;49.488;2022-08-20T11:57:42;27.00;23.65
65369;HTU21D;51970;53.484;49.488;2022-08-20T12:00:14;27.01;23.62
65369;HTU21D;51970;53.484;49.488;2022-08-20T12:02:41;27.12;23.60
65369;HTU21D;51970;53.484;49.488;2022-08-20T12:05:09;27.23;23.51
65369;HTU21D;51970;53.484;49.488;2022-08-20T12:07:36;27.21;23.34
65369;HTU21D;51970;53.484;49.488;2022-08-20T12:10:05;27.26;23.46
65369;HTU21D;51970;53.484;49.488;2022-08-20T12:12:31;27.17;22.39
65369;HTU21D;51970;53.484;49.488;2022-08-20T12:14:57;27.19;22.87
65369;HTU21D;51970;53.484;49.488;2022-08-20T12:17:25;27.17;23.17
65369;HTU21D;51970;53.484;49.488;2022-08-20T12:19:54;27.24;23.21
65369;HTU21D;51970;53.484;49.488;2022-08-20T12:22:21;27.13;23.11
65369;HTU21D;51970;53.484;49.488;2022-08-20T12:24:47;26.99;22.88
65369;HTU21D;51970;53.484;49.488;2022-08-20T12:27:19;26.84;23.11
65369;HTU21D;51970;53.484;49.488;2022-08-20T12:29:47;26.66;22.62
65369;HTU21D;51970;53.484;49.488;2022-08-20T12:32:13;26.50;22.59
65369;HTU21D;51970;53.484;49.488;2022-08-20T12:34:41;26.55;23.50
65369;HTU21D;51970;53.484;49.488;2022-08-20T12:37:13;26.83;22.85
65369;HTU21D;51970;53.484;49.488;2022-08-20T12:39:42;26.93;22.24
65369;HTU21D;51970;53.484;49.488;2022-08-20T12:42:09;26.89;22.22
65369;HTU21D;51970;53.484;49.488;2022-08-20T12:44:36;26.90;22.67
65369;HTU21D;51970;53.484;49.488;2022-08-20T12:47:20;26.95;23.05
65369;HTU21D;51970;53.484;49.488;2022-08-20T12:49:49;27.05;23.88
65369;HTU21D;51970;53.484;49.488;2022-08-20T12:52:18;27.13;23.03
65369;HTU21D;51970;53.484;49.488;2022-08-20T12:54:44;27.21;24.08
65369;HTU21D;51970;53.484;49.488;2022-08-20T12:57:22;27.23;22.59
65369;HTU21D;51970;53.484;49.488;2022-08-20T12:59:48;27.08;21.11
65369;HTU21D;51970;53.484;49.488;2022-08-20T13:02:15;26.75;20.96
65369;HTU21D;51970;53.484;49.488;2022-08-20T13:04:43;26.71;21.48
65369;HTU21D;51970;53.484;49.488;2022-08-20T13:07:10;26.77;22.31
65369;HTU21D;51970;53.484;49.488;2022-08-20T13:09:37;26.84;22.05
65369;HTU21D;51970;53.484;49.488;2022-08-20T13:12:04;26.82;20.98
65369;HTU21D;51970;53.484;49.488;2022-08-20T13:14:30;26.70;21.76
65369;HTU21D;51970;53.484;49.488;2022-08-20T13:16:57;26.75;21.30
65369;HTU21D;51970;53.484;49.488;2022-08-20T13:19:25;26.71;21.31
65369;HTU21D;51970;53.484;49.488;2022-08-20T13:21:52;26.72;22.07
65369;HTU21D;51970;53.484;49.488;2022-08-20T13:24:18;26.76;21.98
65369;HTU21D;51970;53.484;49.488;2022-08-20T13:26:45;26.73;24.84
65369;HTU21D;51970;53.484;49.488;2022-08-20T13:29:11;26.68;21.95
65369;HTU21D;51970;53.484;49.488;2022-08-20T13:31:39;26.53;21.04
65369;HTU21D;51970;53.484;49.488;2022-08-20T13:34:05;26.24;21.85
65369;HTU21D;51970;53.484;49.488;2022-08-20T13:36:31;26.24;24.90
65369;HTU21D;51970;53.484;49.488;2022-08-20T13:38:59;26.30;22.82
65369;HTU21D;51970;53.484;49.488;2022-08-20T13:41:25;26.33;22.97
65369;HTU21D;51970;53.484;49.488;2022-08-20T13:43:52;26.33;23.95
65369;HTU21D;51970;53.484;49.488;2022-08-20T13:46:18;26.32;23.54
65369;HTU21D;51970;53.484;49.488;2022-08-20T13:48:44;26.23;23.55
65369;HTU21D;51970;53.484;49.488;2022-08-20T13:51:11;26.16;23.89
65369;HTU21D;51970;53.484;49.488;2022-08-20T13:53:37;26.16;26.20
65369;HTU21D;51970;53.484;49.488;2022-08-20T13:56:03;26.17;24.15
65369;HTU21D;51970;53.484;49.488;2022-08-20T13:58:29;26.16;24.73
65369;HTU21D;51970;53.484;49.488;2022-08-20T14:00:55;26.13;24.27
65369;HTU21D;51970;53.484;49.488;2022-08-20T14:03:21;26.08;24.01
65369;HTU21D;51970;53.484;49.488;2022-08-20T14:05:47;25.98;25.29
65369;HTU21D;51970;53.484;49.488;2022-08-20T14:08:19;25.94;26.03
65369;HTU21D;51970;53.484;49.488;2022-08-20T14:10:46;25.92;25.53
65369;HTU21D;51970;53.484;49.488;2022-08-20T14:13:17;25.88;25.80
65369;HTU21D;51970;53.484;49.488;2022-08-20T14:15:44;25.82;25.52
65369;HTU21D;51970;53.484;49.488;2022-08-20T14:18:11;25.79;25.87
65369;HTU21D;51970;53.484;49.488;2022-08-20T14:20:37;25.72;25.71
65369;HTU21D;51970;53.484;49.488;2022-08-20T14:23:03;25.66;25.86
65369;HTU21D;51970;53.484;49.488;2022-08-20T14:25:30;25.66;26.20
65369;HTU21D;51970;53.484;49.488;2022-08-20T14:27:57;26.10;25.21
65369;HTU21D;51970;53.484;49.488;2022-08-20T14:30:26;26.53;25.66
65369;HTU21D;51970;53.484;49.488;2022-08-20T14:32:52;26.72;23.95
65369;HTU21D;51970;53.484;49.488;2022-08-20T14:35:19;26.66;23.56
65369;HTU21D;51970;53.484;49.488;2022-08-20T14:37:47;26.72;23.90
65369;HTU21D;51970;53.484;49.488;2022-08-20T14:40:15;26.92;24.33
65369;HTU21D;51970;53.484;49.488;2022-08-20T14:42:42;26.99;24.56
65369;HTU21D;51970;53.484;49.488;2022-08-20T14:45:10;26.56;24.85
65369;HTU21D;51970;53.484;49.488;2022-08-20T14:47:42;26.04;25.49
65369;HTU21D;51970;53.484;49.488;2022-08-20T14:50:15;25.61;26.73
65369;HTU21D;51970;53.484;49.488;2022-08-20T14:52:42;25.28;27.16
65369;HTU21D;51970;53.484;49.488;2022-08-20T14:55:15;25.08;28.04
65369;HTU21D;51970;53.484;49.488;2022-08-20T14:57:42;24.91;28.87
65369;HTU21D;51970;53.484;49.488;2022-08-20T15:00:21;24.86;29.91
65369;HTU21D;51970;53.484;49.488;2022-08-20T15:02:48;24.75;30.45
65369;HTU21D;51970;53.484;49.488;2022-08-20T15:05:14;24.70;30.73
65369;HTU21D;51970;53.484;49.488;2022-08-20T15:07:43;24.63;30.94
65369;HTU21D;51970;53.484;49.488;2022-08-20T15:10:13;24.61;31.21
65369;HTU21D;51970;53.484;49.488;2022-08-20T15:12:40;24.51;31.54
65369;HTU21D;51970;53.484;49.488;2022-08-20T15:15:08;24.42;31.06